Time;durP1;ratioP1;P1;durP2;ratioP2;P2;SDS_P1;SDS_P2;PMS_P1;PMS_P2;Temp;Humidity;BMP_temperature;BMP_pressure;BME280_temperature;BME280_humidity;BME280_pressure;Samples;Min_cycle;Max_cycle;Signal;HPM_P1;HPM_P2
2022/03/13 00:02:20;;;;;;;15.85;8.05;;;;;;;6.44;70.67;99986.72;5093845;28;20024;-69
2022/03/13 00:04:49;;;;;;;18.85;9.75;;;;;;;6.45;70.82;100000.81;5091820;28;20054;-69
2022/03/13 00:07:21;;;;;;;16.70;9.02;;;;;;;6.48;71.04;100000.75;5091843;28;20035;-69
2022/03/13 00:09:50;;;;;;;15.75;8.18;;;;;;;6.39;70.94;99990.34;5109654;28;20372;-69
2022/03/13 00:12:20;;;;;;;18.60;9.55;;;;;;;6.52;70.62;100010.38;5109731;28;20012;-69
2022/03/13 00:14:46;;;;;;;14.75;8.63;;;;;;;6.51;69.16;100012.13;5074251;28;20035;-69
2022/03/13 00:17:15;;;;;;;14.45;8.50;;;;;;;6.48;68.89;100008.66;5091645;28;20028;-69
2022/03/13 00:19:40;;;;;;;14.13;8.90;;;;;;;6.44;69.32;100012.28;5091378;28;20045;-69
2022/03/13 00:22:06;;;;;;;20.25;7.45;;;;;;;6.42;68.71;100025.50;5091109;28;20039;-69
2022/03/13 00:24:32;;;;;;;20.40;9.52;;;;;;;6.41;68.00;100014.94;5091627;28;20131;-69
2022/03/13 00:27:00;;;;;;;17.70;8.32;;;;;;;6.21;68.93;99990.63;5092089;28;20379;-69
2022/03/13 00:29:26;;;;;;;19.95;9.20;;;;;;;6.21;67.72;99995.91;5072760;28;20441;-69
2022/03/13 00:31:52;;;;;;;18.67;9.57;;;;;;;6.28;68.54;100022.19;5091099;28;20073;-69
2022/03/13 00:34:18;;;;;;;22.13;10.98;;;;;;;6.26;69.08;100029.25;5072737;28;20023;-69
2022/03/13 00:36:43;;;;;;;12.82;8.43;;;;;;;6.24;69.53;100022.28;5090742;28;20039;-69
2022/03/13 00:39:09;;;;;;;16.33;9.32;;;;;;;6.21;71.07;100024.97;5090901;28;20085;-69
2022/03/13 00:41:36;;;;;;;19.60;9.60;;;;;;;6.11;70.97;100020.72;5090768;28;20081;-69
2022/03/13 00:44:01;;;;;;;19.00;8.90;;;;;;;6.08;70.50;100024.25;5090669;28;20039;-70
2022/03/13 00:46:28;;;;;;;17.33;8.43;;;;;;;6.03;70.57;100019.97;5091183;28;20463;-70
2022/03/13 00:48:53;;;;;;;17.98;8.68;;;;;;;5.87;71.13;100019.28;5090737;28;20028;-70
2022/03/13 00:51:19;;;;;;;15.80;9.20;;;;;;;5.75;71.75;100018.56;5090420;28;20039;-69
2022/03/13 00:53:45;;;;;;;16.60;8.32;;;;;;;5.73;72.49;100030.91;5093342;28;20472;-69
2022/03/13 00:56:10;;;;;;;15.27;7.22;;;;;;;5.71;72.52;100027.41;5091140;28;20085;-70
2022/03/13 00:58:39;;;;;;;15.07;8.77;;;;;;;5.69;72.75;100034.44;5090614;28;20016;-71
2022/03/13 01:01:05;;;;;;;13.93;7.78;;;;;;;5.65;72.81;100032.75;5071978;28;20123;-69
2022/03/13 01:03:47;;;;;;;17.77;8.82;;;;;;;5.64;72.87;100031.00;5073719;28;20107;-69
2022/03/13 01:06:13;;;;;;;19.20;8.50;;;;;;;5.58;72.72;100036.34;5072403;28;20360;-70
2022/03/13 01:08:40;;;;;;;15.43;8.20;;;;;;;5.56;73.00;100028.47;5101470;28;20049;-70
2022/03/13 01:11:06;;;;;;;15.15;7.88;;;;;;;5.59;73.23;100033.69;5110614;28;20098;-70
2022/03/13 01:13:31;;;;;;;16.00;8.63;;;;;;;5.46;73.71;100021.56;5092250;28;20438;-70
2022/03/13 01:16:18;;;;;;;17.27;7.85;;;;;;;5.38;74.64;100024.28;5110957;28;20051;-70
2022/03/13 01:18:47;;;;;;;14.85;8.70;;;;;;;5.18;74.75;100014.84;5110500;28;20082;-70
2022/03/13 01:21:14;;;;;;;13.60;7.68;;;;;;;5.22;74.24;100027.97;5101125;28;20030;-70
2022/03/13 01:23:40;;;;;;;13.43;7.43;;;;;;;5.22;75.17;100025.34;5090641;28;20042;-69
2022/03/13 01:26:22;;;;;;;16.40;8.48;;;;;;;5.18;74.55;100033.31;5072491;28;20469;-69
2022/03/13 01:28:56;;;;;;;17.50;7.82;;;;;;;5.18;73.79;100036.81;5089590;28;20020;-69
2022/03/13 01:31:28;;;;;;;13.13;7.85;;;;;;;5.12;73.46;100026.31;5071031;28;20032;-69
2022/03/13 01:33:54;;;;;;;15.85;8.45;;;;;;;5.11;73.88;100028.97;5092721;28;20119;-69
2022/03/13 01:36:20;;;;;;;18.15;8.27;;;;;;;5.10;74.31;100022.84;5104745;28;20035;-69
2022/03/13 01:38:45;;;;;;;14.88;8.25;;;;;;;5.13;74.18;100028.09;5109508;28;20392;-69
2022/03/13 01:41:11;;;;;;;15.68;8.48;;;;;;;5.14;73.88;100028.97;5105973;28;20027;-69
2022/03/13 01:43:37;;;;;;;13.35;7.65;;;;;;;4.99;73.68;100019.44;5110178;28;20080;-69
2022/03/13 01:46:04;;;;;;;16.98;9.02;;;;;;;4.98;73.50;100028.25;5085906;28;20045;-69
2022/03/13 01:48:37;;;;;;;17.63;8.65;;;;;;;4.84;73.54;100010.81;5071500;28;20035;-69
2022/03/13 01:51:03;;;;;;;15.85;8.63;;;;;;;4.86;74.69;100024.88;5089386;28;20032;-69
2022/03/13 01:53:29;;;;;;;14.35;8.23;;;;;;;4.92;74.75;100028.31;5096443;28;20034;-70
2022/03/13 01:55:56;;;;;;;14.23;8.13;;;;;;;4.91;75.55;100017.78;5091900;28;20059;-69
2022/03/13 01:58:22;;;;;;;13.57;8.38;;;;;;;4.89;76.04;100012.50;5110068;28;20031;-69
2022/03/13 02:00:48;;;;;;;17.25;9.38;;;;;;;4.79;75.79;100008.25;5109742;28;20478;-69
2022/03/13 02:03:16;;;;;;;14.50;8.93;;;;;;;4.82;75.69;100020.50;5109781;28;20131;-69
2022/03/13 02:05:45;;;;;;;12.40;7.68;;;;;;;4.80;75.23;100011.72;5091820;28;20065;-69
2022/03/13 02:08:21;;;;;;;15.40;8.90;;;;;;;4.86;75.98;100015.19;5105648;28;20024;-69
2022/03/13 02:10:48;;;;;;;19.00;9.32;;;;;;;4.88;75.79;100009.88;5089378;28;20618;-70
2022/03/13 02:13:16;;;;;;;17.60;9.25;;;;;;;5.15;73.96;100004.34;5089339;28;20028;-69
2022/03/13 02:15:41;;;;;;;16.13;8.88;;;;;;;5.27;72.26;100023.53;5089927;28;20032;-69
2022/03/13 02:18:07;;;;;;;17.38;8.23;;;;;;;5.25;70.29;100017.38;5071227;28;20093;-70
2022/03/13 02:20:44;;;;;;;17.85;8.77;;;;;;;5.18;70.88;99999.91;5089181;28;20055;-69
2022/03/13 02:23:20;;;;;;;21.48;9.95;;;;;;;5.28;72.13;100001.56;5103879;28;20027;-69
2022/03/13 02:25:50;;;;;;;14.05;8.60;;;;;;;5.21;72.24;99994.59;5109346;28;20084;-69
2022/03/13 02:28:19;;;;;;;18.27;9.18;;;;;;;5.26;71.49;100008.59;5109302;28;20035;-69
2022/03/13 02:30:45;;;;;;;20.48;9.98;;;;;;;5.17;70.78;99987.59;5090716;28;20088;-69
2022/03/13 02:33:11;;;;;;;17.17;9.10;;;;;;;5.26;69.81;100013.00;5091113;28;20015;-69
2022/03/13 02:35:37;;;;;;;14.10;8.50;;;;;;;5.21;70.18;99989.31;5109097;28;20439;-69
2022/03/13 02:38:02;;;;;;;15.02;8.93;;;;;;;5.25;70.17;100001.56;5109401;28;20439;-69
2022/03/13 02:40:28;;;;;;;16.20;8.43;;;;;;;5.07;68.97;99975.41;5108778;28;20544;-69
2022/03/13 02:42:58;;;;;;;15.82;9.23;;;;;;;5.17;69.76;100000.78;5109137;28;20044;-69
2022/03/13 02:45:29;;;;;;;17.92;8.82;;;;;;;5.18;69.03;99991.13;5108817;28;20074;-69
2022/03/13 02:47:56;;;;;;;16.58;8.65;;;;;;;5.11;70.89;99977.13;5107502;28;20019;-69
2022/03/13 02:50:22;;;;;;;17.23;9.75;;;;;;;5.18;71.92;99992.00;5088566;28;20028;-69
2022/03/13 02:52:47;;;;;;;16.42;7.93;;;;;;;5.12;70.70;99994.69;5090271;28;20706;-69
2022/03/13 02:55:13;;;;;;;17.58;9.25;;;;;;;5.08;69.75;100003.53;5087904;28;20032;-69
2022/03/13 02:57:39;;;;;;;15.23;8.07;;;;;;;4.99;69.90;99997.50;5089021;28;20071;-70
2022/03/13 03:00:08;;;;;;;15.70;8.93;;;;;;;5.00;70.79;100010.66;5090830;28;20573;-70
2022/03/13 03:02:33;;;;;;;20.48;9.75;;;;;;;4.91;71.57;99997.56;5074501;28;20032;-69
2022/03/13 03:05:04;;;;;;;16.98;8.52;;;;;;;4.88;71.33;99994.97;5092650;28;20024;-69
2022/03/13 03:07:29;;;;;;;18.23;9.60;;;;;;;4.77;72.25;99990.69;5092334;28;20024;-69
2022/03/13 03:09:55;;;;;;;16.52;8.75;;;;;;;4.84;71.89;99993.22;5073651;28;20027;-70
2022/03/13 03:12:20;;;;;;;15.65;8.48;;;;;;;4.81;73.35;100001.16;5094916;28;20439;-70
2022/03/13 03:14:46;;;;;;;14.15;8.00;;;;;;;4.69;74.09;99988.13;5092679;28;20077;-70
2022/03/13 03:17:11;;;;;;;14.48;8.88;;;;;;;4.66;73.75;99993.41;5092407;28;20023;-69
2022/03/13 03:19:37;;;;;;;15.35;8.18;;;;;;;4.66;74.18;99990.78;5092047;28;20518;-69
2022/03/13 03:22:02;;;;;;;17.60;9.52;;;;;;;4.64;74.38;99995.22;5091698;28;20028;-69
2022/03/13 03:24:28;;;;;;;20.63;9.27;;;;;;;4.61;74.54;99981.19;5092218;28;20031;-69
2022/03/13 03:26:54;;;;;;;18.40;7.95;;;;;;;4.60;73.96;99985.56;5074440;28;20067;-69
2022/03/13 03:29:20;;;;;;;14.38;8.35;;;;;;;4.52;74.04;99990.03;5094402;28;20088;-69
2022/03/13 03:31:48;;;;;;;16.67;8.90;;;;;;;4.50;74.34;99993.59;5091294;28;20024;-69
2022/03/13 03:34:20;;;;;;;20.38;8.55;;;;;;;4.47;74.44;100002.38;5092090;28;20562;-69
2022/03/13 03:37:03;;;;;;;16.90;8.57;;;;;;;4.43;74.54;100005.06;5107153;28;20474;-69
2022/03/13 03:39:31;;;;;;;13.95;8.15;;;;;;;4.36;75.13;100004.22;5086289;28;20368;-69
2022/03/13 03:41:56;;;;;;;16.23;8.52;;;;;;;4.17;74.88;99994.72;5092261;28;20021;-69
2022/03/13 03:44:23;;;;;;;17.50;9.13;;;;;;;4.31;75.55;100011.28;5092008;28;20501;-69
2022/03/13 03:46:49;;;;;;;12.98;7.72;;;;;;;4.25;75.80;100005.19;5094891;28;20130;-69
2022/03/13 03:49:15;;;;;;;16.02;9.18;;;;;;;4.12;76.25;100007.03;5091704;28;20020;-69
2022/03/13 03:51:43;;;;;;;15.57;8.90;;;;;;;4.14;76.25;100017.53;5092146;28;20027;-69
2022/03/13 03:54:08;;;;;;;15.13;7.78;;;;;;;4.03;77.05;100009.75;5092341;28;20024;-69
2022/03/13 03:56:34;;;;;;;17.83;8.88;;;;;;;3.96;77.01;100013.28;5092398;28;20421;-69
2022/03/13 03:59:00;;;;;;;16.67;8.63;;;;;;;4.00;76.31;100030.81;5091593;28;20038;-69
2022/03/13 04:01:26;;;;;;;14.25;9.10;;;;;;;3.98;75.35;100016.78;5091795;28;20040;-69
2022/03/13 04:03:51;;;;;;;15.40;8.45;;;;;;;3.99;75.33;100015.88;5073558;28;20031;-69
2022/03/13 04:06:19;;;;;;;14.68;8.25;;;;;;;4.01;75.79;100036.06;5092063;28;20384;-69
2022/03/13 04:08:45;;;;;;;14.10;9.43;;;;;;;3.95;76.26;100032.59;5101310;28;20023;-69
2022/03/13 04:11:12;;;;;;;14.55;8.35;;;;;;;3.90;76.77;100026.50;5109584;28;20020;-69
2022/03/13 04:13:38;;;;;;;14.60;7.82;;;;;;;3.85;76.36;100021.25;5106987;28;20016;-69
2022/03/13 04:16:08;;;;;;;15.00;7.88;;;;;;;3.82;77.45;100029.16;5091888;28;20475;-69
2022/03/13 04:18:36;;;;;;;15.65;7.78;;;;;;;3.77;77.44;100027.44;5091566;28;20055;-69
2022/03/13 04:21:04;;;;;;;17.42;8.98;;;;;;;3.68;77.85;100011.69;5091342;28;20081;-69
2022/03/13 04:23:31;;;;;;;15.50;8.82;;;;;;;3.66;77.85;100018.72;5091060;28;20032;-69
2022/03/13 04:25:56;;;;;;;15.80;9.10;;;;;;;3.78;78.26;100034.44;5091802;28;20028;-69
2022/03/13 04:28:22;;;;;;;15.60;8.88;;;;;;;3.78;78.88;100034.44;5073146;28;20382;-69
2022/03/13 04:30:52;;;;;;;16.20;8.52;;;;;;;3.65;79.51;100017.84;5091050;28;20040;-69
2022/03/13 04:33:18;;;;;;;15.13;8.73;;;;;;;3.73;78.62;100026.56;5091091;28;20634;-69
2022/03/13 04:35:43;;;;;;;16.65;8.95;;;;;;;3.86;77.88;100032.63;5091504;28;20475;-69
2022/03/13 04:38:09;;;;;;;16.38;9.02;;;;;;;3.92;77.36;100043.16;5091386;28;20024;-69
2022/03/13 04:40:34;;;;;;;19.77;9.95;;;;;;;3.77;76.82;100027.44;5090889;28;20107;-69
2022/03/13 04:43:01;;;;;;;15.30;8.52;;;;;;;3.84;76.61;100043.16;5090985;28;20073;-69
2022/03/13 04:45:27;;;;;;;14.63;8.20;;;;;;;3.79;76.22;100041.44;5091099;28;20024;-69
2022/03/13 04:47:52;;;;;;;19.88;9.10;;;;;;;3.75;77.07;100039.72;5090611;28;20654;-69
2022/03/13 04:50:18;;;;;;;23.85;9.60;;;;;;;3.62;77.37;100023.13;5072928;28;20081;-69
2022/03/13 04:52:44;;;;;;;21.02;9.02;;;;;;;3.75;78.59;100040.59;5090555;28;20107;-69
2022/03/13 04:55:09;;;;;;;15.38;8.32;;;;;;;3.77;78.39;100045.84;5094004;28;20022;-69
2022/03/13 04:57:35;;;;;;;18.27;9.18;;;;;;;3.76;78.13;100036.19;5090561;28;20028;-69
2022/03/13 05:00:00;;;;;;;20.63;9.98;;;;;;;3.81;78.78;100045.81;5090559;28;20024;-69
2022/03/13 05:02:26;;;;;;;19.23;9.60;;;;;;;3.83;78.71;100058.97;5090465;28;20060;-69
2022/03/13 05:04:51;;;;;;;23.67;9.23;;;;;;;3.77;79.07;100059.84;5108817;28;20019;-69
2022/03/13 05:07:18;;;;;;;14.25;7.97;;;;;;;3.75;78.73;100055.50;5092276;28;20024;-69
2022/03/13 05:09:44;;;;;;;19.80;9.35;;;;;;;3.67;78.55;100067.81;5092994;28;20399;-69
2022/03/13 05:12:10;;;;;;;22.13;9.35;;;;;;;3.64;77.35;100073.94;5090435;28;20016;-69
2022/03/13 05:14:36;;;;;;;20.13;9.32;;;;;;;3.67;77.39;100070.44;5072114;28;20437;-69
2022/03/13 05:17:02;;;;;;;18.88;9.23;;;;;;;3.49;77.43;100054.75;5071858;28;20103;-69
2022/03/13 05:19:27;;;;;;;18.13;9.60;;;;;;;3.60;77.57;100082.75;5092576;28;20503;-69
2022/03/13 05:21:52;;;;;;;19.17;8.77;;;;;;;3.55;77.70;100078.38;5089613;28;20039;-69
2022/03/13 05:24:18;;;;;;;22.63;10.43;;;;;;;3.51;78.25;100081.91;5093075;28;20023;-69
2022/03/13 05:26:45;;;;;;;22.83;8.60;;;;;;;3.49;78.36;100078.41;5090363;28;20028;-69
2022/03/13 05:29:11;;;;;;;17.45;9.23;;;;;;;3.53;78.94;100090.66;5090845;28;20036;-69
2022/03/13 05:31:36;;;;;;;17.40;9.23;;;;;;;3.51;78.50;100087.16;5108766;28;20045;-69
2022/03/13 05:34:02;;;;;;;15.00;8.50;;;;;;;3.53;78.38;100085.38;5110507;28;20024;-68
2022/03/13 05:36:27;;;;;;;19.30;10.38;;;;;;;3.58;79.73;100087.13;5107270;28;20051;-69
2022/03/13 05:38:53;;;;;;;19.40;8.65;;;;;;;3.63;79.74;100092.38;5089780;28;20035;-69
2022/03/13 05:41:22;;;;;;;15.05;9.75;;;;;;;3.69;80.01;100082.69;5092234;28;20399;-69
2022/03/13 05:43:49;;;;;;;21.27;9.70;;;;;;;3.75;80.08;100076.53;5089789;28;20114;-68
2022/03/13 05:46:15;;;;;;;17.50;9.35;;;;;;;3.72;80.11;100055.53;5073294;28;20178;-68
2022/03/13 05:48:40;;;;;;;62.40;15.35;;;;;;;3.95;79.86;100074.69;5090047;28;20115;-68
2022/03/13 05:51:06;;;;;;;18.38;10.23;;;;;;;4.05;80.01;100066.72;5089711;28;20857;-68
2022/03/13 05:53:31;;;;;;;26.98;11.57;;;;;;;4.17;79.28;100081.56;5089548;28;20103;-69
2022/03/13 05:55:57;;;;;;;21.80;10.90;;;;;;;4.17;78.97;100068.41;5071865;28;20024;-69
2022/03/13 05:58:23;;;;;;;23.75;12.95;;;;;;;4.30;77.61;100088.50;5071642;28;20020;-69
2022/03/13 06:00:54;;;;;;;18.92;10.80;;;;;;;4.38;77.46;100102.53;5089885;28;20060;-69
2022/03/13 06:03:20;;;;;;;17.85;9.40;;;;;;;4.25;77.59;100106.09;5071010;28;20031;-69
2022/03/13 06:05:46;;;;;;;15.13;10.18;;;;;;;4.30;77.22;100087.66;5089783;28;20028;-69
2022/03/13 06:08:11;;;;;;;16.92;9.73;;;;;;;4.64;77.57;100105.84;5094583;28;20027;-69
2022/03/13 06:10:36;;;;;;;21.17;10.88;;;;;;;5.17;76.45;100110.66;5091482;28;20429;-69
2022/03/13 06:13:02;;;;;;;18.88;9.15;;;;;;;5.58;73.88;100089.13;5094994;28;20031;-69
2022/03/13 06:15:28;;;;;;;18.25;9.77;;;;;;;6.29;72.40;100102.31;5089608;28;20054;-69
2022/03/13 06:17:57;;;;;;;17.70;10.00;;;;;;;6.86;68.26;100092.63;5089229;28;20051;-69
2022/03/13 06:20:22;;;;;;;24.58;10.93;;;;;;;7.91;61.87;100109.16;5089495;28;20027;-69
2022/03/13 06:22:48;;;;;;;21.95;10.60;;;;;;;8.83;57.24;100107.13;5089385;28;20387;-68
2022/03/13 06:25:14;;;;;;;20.38;11.10;;;;;;;9.46;55.63;100105.47;5089487;28;20024;-69
2022/03/13 06:27:41;;;;;;;16.20;10.27;;;;;;;10.06;53.18;100098.47;5089537;28;20034;-69
2022/03/13 06:30:16;;;;;;;19.35;11.23;;;;;;;10.63;51.40;100098.50;5089269;28;20034;-69
2022/03/13 06:32:47;;;;;;;18.55;10.57;;;;;;;9.93;50.50;100102.41;5088714;28;20028;-69
2022/03/13 06:35:14;;;;;;;16.40;9.57;;;;;;;9.20;51.00;100113.25;5091990;28;20089;-69
2022/03/13 06:37:41;;;;;;;18.95;9.73;;;;;;;8.51;51.86;100091.09;5093408;28;20446;-69
2022/03/13 06:40:08;;;;;;;14.60;9.18;;;;;;;8.13;54.42;100112.22;5092646;28;20650;-69
2022/03/13 06:42:34;;;;;;;21.95;10.65;;;;;;;7.92;57.45;100090.59;5092651;28;20031;-69
2022/03/13 06:45:00;;;;;;;19.20;10.02;;;;;;;8.72;59.49;100083.50;5093093;28;20052;-69
2022/03/13 06:47:26;;;;;;;16.67;9.77;;;;;;;9.47;55.53;100087.78;5093642;28;20482;-69
2022/03/13 06:49:51;;;;;;;17.73;10.43;;;;;;;9.90;52.49;100083.03;5098835;28;20055;-69
2022/03/13 06:52:17;;;;;;;61.30;25.05;;;;;;;9.92;51.05;100090.00;5092392;28;20076;-69
2022/03/13 06:54:43;;;;;;;37.15;17.08;;;;;;;9.17;52.51;100089.47;5092969;28;20087;-69
2022/03/13 06:57:09;;;;;;;32.53;15.15;;;;;;;8.86;53.57;100093.78;5074801;28;20522;-69
2022/03/13 06:59:34;;;;;;;31.35;14.98;;;;;;;8.60;54.10;100085.59;5092295;28;20068;-69
2022/03/13 07:02:00;;;;;;;22.90;11.60;;;;;;;8.31;55.45;100085.38;5092002;28;20540;-69
2022/03/13 07:04:25;;;;;;;22.65;10.82;;;;;;;7.93;56.75;100068.50;5091426;28;20039;-69
2022/03/13 07:06:51;;;;;;;20.83;10.95;;;;;;;7.89;57.92;100080.06;5094711;28;20052;-69
2022/03/13 07:09:16;;;;;;;19.60;11.45;;;;;;;7.78;59.26;100087.38;5098582;28;20050;-69
2022/03/13 07:11:45;;;;;;;20.05;12.18;;;;;;;7.74;59.45;100074.22;5092356;28;20391;-69
2022/03/13 07:14:11;;;;;;;20.38;11.70;;;;;;;7.75;59.74;100068.00;5074355;28;20475;-69
2022/03/13 07:16:37;;;;;;;19.50;9.63;;;;;;;7.88;60.27;100066.84;5073886;28;20035;-69
2022/03/13 07:19:03;;;;;;;16.60;10.27;;;;;;;7.98;59.06;100065.75;5091606;28;20395;-69
2022/03/13 07:21:28;;;;;;;21.40;10.40;;;;;;;8.43;59.20;100058.59;5092120;28;20028;-69
2022/03/13 07:23:54;;;;;;;25.90;11.77;;;;;;;10.42;54.57;100067.28;5092104;28;20493;-69
2022/03/13 07:26:19;;;;;;;23.67;13.02;;;;;;;12.12;50.23;100065.78;5094921;28;20407;-69
2022/03/13 07:28:45;;;;;;;22.58;10.55;;;;;;;12.29;47.91;100071.34;5073491;28;20027;-69
2022/03/13 07:31:10;;;;;;;14.98;9.55;;;;;;;11.82;48.86;100071.34;5091799;28;20494;-69
2022/03/13 07:33:35;;;;;;;20.65;10.10;;;;;;;11.55;48.88;100082.06;5086184;28;20030;-69
2022/03/13 07:36:02;;;;;;;17.55;9.75;;;;;;;11.19;50.12;100075.34;5103128;28;20020;-69
2022/03/13 07:38:30;;;;;;;15.98;8.73;;;;;;;12.08;48.22;100067.69;5106292;28;20503;-69
2022/03/13 07:40:56;;;;;;;18.00;9.90;;;;;;;12.43;47.92;100056.53;5111888;28;20049;-69
2022/03/13 07:43:21;;;;;;;18.38;10.65;;;;;;;14.28;45.72;100060.97;5093484;28;20023;-69
2022/03/13 07:45:47;;;;;;;19.98;11.10;;;;;;;16.26;40.65;100065.91;5111679;28;20069;-69
2022/03/13 07:48:12;;;;;;;18.23;10.52;;;;;;;15.73;39.59;100070.63;5112070;28;20102;-69
2022/03/13 07:50:39;;;;;;;18.40;9.60;;;;;;;14.15;41.29;100054.44;5089756;28;20031;-69
2022/03/13 07:53:04;;;;;;;18.70;10.25;;;;;;;12.94;43.36;100067.78;5091526;28;20073;-69
2022/03/13 07:55:30;;;;;;;20.98;10.65;;;;;;;12.13;46.19;100076.38;5091776;28;20028;-69
2022/03/13 07:57:55;;;;;;;19.73;10.55;;;;;;;11.48;47.13;100075.25;5091584;28;20038;-69
2022/03/13 08:00:22;;;;;;;16.73;10.43;;;;;;;11.34;49.38;100072.19;5090965;28;20036;-69
2022/03/13 08:02:49;;;;;;;19.23;10.25;;;;;;;11.71;48.57;100075.31;5091064;28;20024;-69
2022/03/13 08:05:18;;;;;;;21.08;10.57;;;;;;;12.28;49.36;100053.59;5091426;28;20059;-69
2022/03/13 08:07:44;;;;;;;20.30;10.40;;;;;;;12.77;47.79;100054.25;5094421;28;20047;-69
2022/03/13 08:10:10;;;;;;;17.85;10.50;;;;;;;12.51;46.66;100050.88;5111527;28;20031;-69
2022/03/13 08:12:38;;;;;;;18.10;10.00;;;;;;;12.37;46.91;100046.09;5111597;28;20364;-69
2022/03/13 08:15:08;;;;;;;19.90;10.80;;;;;;;12.12;46.46;100042.66;5111490;28;20114;-69
2022/03/13 08:17:36;;;;;;;16.45;10.65;;;;;;;11.93;47.23;100046.94;5111160;28;20132;-69
2022/03/13 08:20:06;;;;;;;18.73;9.90;;;;;;;12.04;47.88;100049.22;5111267;28;20027;-69
2022/03/13 08:22:32;;;;;;;18.63;9.13;;;;;;;11.99;48.01;100059.19;5090041;28;20054;-69
2022/03/13 08:24:58;;;;;;;19.95;10.35;;;;;;;11.78;47.61;100068.81;5090849;28;20016;-69
2022/03/13 08:27:24;;;;;;;20.00;10.82;;;;;;;11.54;48.68;100080.34;5090989;28;20024;-69
2022/03/13 08:29:49;;;;;;;20.27;10.45;;;;;;;11.48;47.70;100085.91;5090584;28;20034;-69
2022/03/13 08:32:16;;;;;;;15.93;9.10;;;;;;;11.34;48.50;100086.38;5072571;28;20077;-69
2022/03/13 08:34:42;;;;;;;18.75;10.60;;;;;;;11.41;48.59;100068.38;5089928;28;20028;-69
2022/03/13 08:37:08;;;;;;;22.10;10.25;;;;;;;11.68;49.57;100072.75;5090819;28;20027;-69
2022/03/13 08:39:34;;;;;;;26.45;11.35;;;;;;;11.79;48.78;100067.91;5090627;28;20032;-69
2022/03/13 08:42:00;;;;;;;19.17;10.27;;;;;;;11.99;48.92;100078.72;5093187;28;20094;-69
2022/03/13 08:44:25;;;;;;;21.45;11.23;;;;;;;12.05;48.06;100074.94;5090631;28;20082;-69
2022/03/13 08:46:51;;;;;;;24.65;10.77;;;;;;;12.08;47.93;100073.03;5090426;28;20020;-70
2022/03/13 08:49:16;;;;;;;21.98;10.20;;;;;;;12.22;46.93;100073.38;5090176;28;20024;-71
2022/03/13 08:51:42;;;;;;;22.10;11.02;;;;;;;12.25;46.86;100065.25;5090990;28;20024;-69
2022/03/13 08:54:08;;;;;;;19.65;10.48;;;;;;;12.42;47.28;100065.47;5090839;28;20038;-71
2022/03/13 08:56:35;;;;;;;23.15;11.80;;;;;;;12.66;46.00;100064.50;5073884;28;20024;-70
2022/03/13 08:59:02;;;;;;;18.92;10.73;;;;;;;12.55;46.02;100060.53;5090598;28;20043;-70
2022/03/13 09:01:27;;;;;;;21.30;11.23;;;;;;;12.58;45.08;100037.25;5090907;28;20126;-70
2022/03/13 09:03:53;;;;;;;21.00;11.63;;;;;;;12.91;45.67;100059.91;5090462;28;20107;-70
2022/03/13 09:06:19;;;;;;;21.23;10.65;;;;;;;13.03;45.84;100066.56;5090900;28;20065;-70
2022/03/13 09:08:44;;;;;;;19.65;11.07;;;;;;;13.34;45.55;100060.78;5100052;28;20011;-70
2022/03/13 09:11:10;;;;;;;21.20;11.02;;;;;;;13.72;43.81;100052.81;5110643;28;20084;-70
2022/03/13 09:13:36;;;;;;;19.98;11.00;;;;;;;14.09;43.36;100035.97;5110855;28;20098;-70
2022/03/13 09:16:02;;;;;;;19.23;9.68;;;;;;;14.25;44.24;100048.59;5111046;28;21196;-70
2022/03/13 09:18:30;;;;;;;19.80;11.13;;;;;;;14.40;43.59;100049.66;5110745;28;20100;-70
2022/03/13 09:20:56;;;;;;;21.10;11.00;;;;;;;14.46;41.97;100047.56;5104347;28;20024;-70
2022/03/13 09:23:21;;;;;;;21.00;11.43;;;;;;;14.62;42.76;100053.06;5090381;28;20024;-70
2022/03/13 09:25:47;;;;;;;22.35;11.32;;;;;;;14.63;41.72;100059.31;5074382;28;20027;-70
2022/03/13 09:28:12;;;;;;;18.73;11.13;;;;;;;14.66;42.13;100056.47;5089769;28;20557;-70
2022/03/13 09:30:39;;;;;;;19.25;10.73;;;;;;;14.58;41.98;100061.34;5090377;28;20026;-70
2022/03/13 09:33:04;;;;;;;22.40;11.05;;;;;;;14.68;41.05;100051.91;5103309;28;20466;-70
2022/03/13 09:35:31;;;;;;;17.05;10.40;;;;;;;14.90;42.23;100061.50;5085505;28;20030;-70
2022/03/13 09:37:56;;;;;;;20.75;11.35;;;;;;;14.75;42.19;100058.69;5107379;28;20047;-70
2022/03/13 09:40:22;;;;;;;21.77;11.60;;;;;;;14.58;42.22;100062.19;5091731;28;20525;-70
2022/03/13 09:42:48;;;;;;;18.88;10.75;;;;;;;14.09;42.86;100057.38;5100224;28;20107;-70
2022/03/13 09:45:14;;;;;;;20.00;12.05;;;;;;;13.83;44.10;100055.91;5090011;28;20470;-70
2022/03/13 09:47:41;;;;;;;24.38;10.95;;;;;;;13.65;44.05;100045.16;5072134;28;20469;-70
2022/03/13 09:50:08;;;;;;;19.77;11.10;;;;;;;13.76;44.29;100054.44;5071648;28;20556;-70
2022/03/13 09:52:36;;;;;;;25.75;12.15;;;;;;;13.82;44.38;100048.78;5089851;28;20027;-70
2022/03/13 09:55:02;;;;;;;20.23;10.70;;;;;;;14.01;43.99;100049.72;5089805;28;20102;-70
2022/03/13 09:57:28;;;;;;;19.92;9.88;;;;;;;14.08;44.52;100044.94;5090165;28;20065;-70
2022/03/13 09:59:54;;;;;;;18.95;11.32;;;;;;;14.32;43.87;100043.81;5090345;28;20031;-70
2022/03/13 10:02:19;;;;;;;20.10;10.95;;;;;;;14.38;42.94;100035.53;5090572;28;20023;-70
2022/03/13 10:04:44;;;;;;;22.88;11.30;;;;;;;14.39;44.15;100029.22;5108682;28;20069;-70
2022/03/13 10:07:12;;;;;;;19.17;10.80;;;;;;;14.56;43.06;100040.00;5110654;28;20020;-70
2022/03/13 10:09:43;;;;;;;24.40;11.52;;;;;;;14.82;43.36;100049.41;5092619;28;20477;-70
2022/03/13 10:12:16;;;;;;;20.88;11.20;;;;;;;14.95;41.34;100046.06;5089936;28;20026;-70
2022/03/13 10:15:03;;;;;;;19.48;9.73;;;;;;;15.15;41.38;100040.56;5089911;28;20032;-70
2022/03/13 10:17:30;;;;;;;19.95;10.77;;;;;;;15.29;40.44;100034.50;5089536;28;20031;-70
2022/03/13 10:20:17;;;;;;;16.88;9.80;;;;;;;15.41;41.49;100025.84;5071296;28;20376;-70
2022/03/13 10:22:44;;;;;;;18.77;11.00;;;;;;;15.72;41.02;100029.53;5089152;28;20028;-70
2022/03/13 10:25:13;;;;;;;22.33;10.38;;;;;;;15.74;40.42;100024.09;5075144;28;20560;-70
2022/03/13 10:27:40;;;;;;;18.98;10.68;;;;;;;15.66;40.30;100027.19;5091845;28;20375;-70
2022/03/13 10:30:09;;;;;;;17.67;10.70;;;;;;;15.83;39.85;100021.78;5089517;28;20024;-70
2022/03/13 10:32:38;;;;;;;19.88;11.10;;;;;;;15.77;39.75;100027.47;5088830;28;20035;-70
2022/03/13 10:35:04;;;;;;;18.45;10.60;;;;;;;15.87;39.86;100027.84;5089709;28;20039;-70
2022/03/13 10:37:33;;;;;;;24.60;10.30;;;;;;;16.14;39.10;100028.16;5089619;28;20028;-70
2022/03/13 10:40:22;;;;;;;18.10;10.77;;;;;;;16.29;40.21;100021.94;5070993;28;20028;-70
2022/03/13 10:42:50;;;;;;;27.60;12.65;;;;;;;15.98;38.99;100000.44;5089716;28;20028;-69
2022/03/13 10:45:37;;;;;;;21.90;11.02;;;;;;;15.99;39.89;100015.56;5086201;28;20028;-69
2022/03/13 10:48:36;;;;;;;20.00;9.90;;;;;;;15.71;39.28;100022.44;5071227;28;20027;-70
2022/03/13 10:51:12;;;;;;;20.17;11.43;;;;;;;15.66;39.92;100016.47;5087892;28;20024;-69
2022/03/13 10:53:42;;;;;;;23.80;11.52;;;;;;;15.52;40.46;100015.44;5088480;28;20024;-69
2022/03/13 10:56:12;;;;;;;19.30;10.85;;;;;;;15.50;41.46;99996.75;5089661;28;20046;-69
2022/03/13 10:58:45;;;;;;;20.75;10.55;;;;;;;15.47;40.93;99996.91;5090639;28;20016;-69
2022/03/13 11:01:23;;;;;;;26.50;11.00;;;;;;;15.56;40.41;99985.72;5089190;28;20096;-69
2022/03/13 11:03:52;;;;;;;20.00;10.45;;;;;;;15.90;39.04;99994.63;5088681;28;20039;-69
2022/03/13 11:06:19;;;;;;;25.23;10.68;;;;;;;16.26;39.16;99992.59;5089272;28;20024;-69
2022/03/13 11:08:45;;;;;;;22.65;11.82;;;;;;;16.99;38.99;99979.38;5098556;28;20020;-69
2022/03/13 11:11:15;;;;;;;21.65;10.50;;;;;;;17.52;37.54;99985.09;5109172;28;20526;-69
2022/03/13 11:13:41;;;;;;;20.27;11.07;;;;;;;17.36;36.84;99980.72;5109693;28;20034;-70
2022/03/13 11:16:09;;;;;;;22.67;10.95;;;;;;;17.20;35.89;99980.78;5108155;28;20019;-69
2022/03/13 11:18:36;;;;;;;22.00;11.05;;;;;;;17.07;37.69;99985.16;5109131;28;20126;-69
2022/03/13 11:21:06;;;;;;;19.17;10.30;;;;;;;17.12;37.66;99980.38;5103705;28;20387;-69